Terminal Aerodrome Forecast
Issued by NWS Jackson, MS

Home | Current Version | Previous Version | Text Only | Print | Product List | Glossary On
Versions: 1 2 3 4 5 6 7 8 9 10 11 12
497
FTUS44 KJAN 090520
TAFGLH
TAF
KGLH 090520Z 0906/1006 28007KT P6SM SKC
     FM091400 29016G26KT P6SM SKC
     FM100000 31007KT P6SM SKC=

USA.gov is the U.S. government's official web portal to all federal, state and local government web resources and services.